createdAt,value
2022-09-23T00:02:34.000Z,11.02
2022-09-23T00:07:35.000Z,11.23
2022-09-23T00:12:34.000Z,11.47
2022-09-23T00:17:35.000Z,11.66
2022-09-23T00:22:34.000Z,11.66
2022-09-23T00:27:35.000Z,11.79
2022-09-23T00:32:34.000Z,11.75
2022-09-23T00:37:35.000Z,11.61
2022-09-23T00:42:35.000Z,11.44
2022-09-23T00:47:34.000Z,11.39
2022-09-23T00:52:35.000Z,11.4
2022-09-23T00:57:35.000Z,11.45
2022-09-23T01:02:35.000Z,11.53
2022-09-23T01:07:34.000Z,11.63
2022-09-23T01:12:35.000Z,11.66
2022-09-23T01:17:35.000Z,11.56
2022-09-23T01:22:35.000Z,11.51
2022-09-23T01:27:34.000Z,11.47
2022-09-23T01:32:35.000Z,11.67
2022-09-23T01:37:35.000Z,11.67
2022-09-23T01:42:35.000Z,11.67
2022-09-23T01:47:35.000Z,11.57
2022-09-23T01:52:34.000Z,11.5
2022-09-23T01:57:35.000Z,11.6
2022-09-23T02:02:35.000Z,11.73
2022-09-23T02:07:35.000Z,11.74
2022-09-23T02:12:35.000Z,11.53
2022-09-23T02:17:34.000Z,11.48
2022-09-23T02:22:35.000Z,11.51
2022-09-23T02:27:35.000Z,11.4
2022-09-23T02:37:34.000Z,11.27
2022-09-23T02:42:35.000Z,11.23
2022-09-23T02:47:35.000Z,11.23
2022-09-23T02:52:35.000Z,11.14
2022-09-23T02:57:35.000Z,11.02
2022-09-23T03:02:35.000Z,11.16
2022-09-23T03:07:34.000Z,11.15
2022-09-23T03:12:35.000Z,11.13
2022-09-23T03:17:35.000Z,11.14
2022-09-23T03:22:34.000Z,11.18
2022-09-23T03:27:34.000Z,11.13
2022-09-23T03:32:35.000Z,11.11
2022-09-23T03:37:34.000Z,11.11
2022-09-23T03:42:35.000Z,11.26
2022-09-23T03:47:35.000Z,11.18
2022-09-23T03:52:34.000Z,11.24
2022-09-23T03:57:35.000Z,11.31
2022-09-23T04:07:34.000Z,11.33
2022-09-23T04:12:35.000Z,11.39
2022-09-23T04:17:35.000Z,11.23
2022-09-23T04:22:35.000Z,11.23
2022-09-23T04:27:34.000Z,11.37
2022-09-23T04:32:35.000Z,11.35
2022-09-23T04:37:35.000Z,11.56
2022-09-23T04:42:35.000Z,11.69
2022-09-23T04:47:34.000Z,11.84
2022-09-23T04:52:35.000Z,12.01
2022-09-23T04:57:35.000Z,11.97
2022-09-23T05:02:35.000Z,12.01
2022-09-23T05:07:34.000Z,12.3
2022-09-23T05:12:35.000Z,13.15
2022-09-23T05:17:35.000Z,13.6
2022-09-23T05:22:35.000Z,13.98
2022-09-23T05:27:35.000Z,14.43
2022-09-23T05:32:35.000Z,13.94
2022-09-23T05:37:35.000Z,13.94
2022-09-23T05:42:34.000Z,13.85
2022-09-23T05:47:34.000Z,13.99
2022-09-23T05:52:35.000Z,13.75
2022-09-23T05:57:35.000Z,13.64
2022-09-23T06:02:35.000Z,13.55
2022-09-23T06:07:34.000Z,13.93
2022-09-23T06:12:35.000Z,14.26
2022-09-23T06:17:34.000Z,14.84
2022-09-23T06:22:34.000Z,14.65
2022-09-23T06:27:35.000Z,14.85
2022-09-23T06:32:34.000Z,14.95
2022-09-23T06:37:35.000Z,14.26
2022-09-23T06:42:35.000Z,13.59
2022-09-23T06:52:35.000Z,13.17
2022-09-23T06:57:34.000Z,13.07
2022-09-23T07:02:35.000Z,13.34
2022-09-23T07:07:34.000Z,13.31
2022-09-23T07:12:34.000Z,13.47
2022-09-23T07:17:35.000Z,13.49
2022-09-23T07:22:34.000Z,13.72
2022-09-23T07:27:35.000Z,13.72
2022-09-23T07:42:34.000Z,13.71
2022-09-23T07:47:35.000Z,12.32
2022-09-23T07:52:34.000Z,12.36
2022-09-23T07:57:35.000Z,12.68
2022-09-23T08:02:35.000Z,12.97
2022-09-23T08:07:35.000Z,12.74
2022-09-23T08:12:34.000Z,13.07
2022-09-23T08:17:35.000Z,13.44
2022-09-23T08:22:34.000Z,14.24
2022-09-23T08:27:34.000Z,14.24
2022-09-23T08:32:34.000Z,14.76
2022-09-23T08:37:35.000Z,15.16
2022-09-23T08:42:34.000Z,15.51
2022-09-23T08:47:35.000Z,15.48
2022-09-23T08:52:34.000Z,15.52
2022-09-23T08:57:34.000Z,14.84
2022-09-23T09:02:34.000Z,14.87
2022-09-23T09:07:47.000Z,14.93
2022-09-23T09:12:34.000Z,14.93
2022-09-23T09:17:34.000Z,14.81
2022-09-23T09:27:35.000Z,14.37
2022-09-23T09:32:34.000Z,14.32
2022-09-23T09:37:35.000Z,14.49
2022-09-23T09:42:35.000Z,14.47
2022-09-23T09:47:35.000Z,14.47
2022-09-23T09:52:35.000Z,14.42
2022-09-23T09:57:35.000Z,14.47
2022-09-23T10:02:34.000Z,14.57
2022-09-23T10:07:34.000Z,14.52
2022-09-23T10:12:34.000Z,14.52
2022-09-23T10:17:34.000Z,14.61
2022-09-23T10:22:34.000Z,14.75
2022-09-23T10:27:35.000Z,15.05
2022-09-23T10:32:34.000Z,15.23
2022-09-23T10:37:35.000Z,15.26
2022-09-23T10:42:35.000Z,15.13
2022-09-23T10:47:34.000Z,15.26
2022-09-23T10:52:35.000Z,14.85
2022-09-23T10:57:34.000Z,14.63
2022-09-23T11:02:35.000Z,14.63
2022-09-23T11:07:35.000Z,14.67
2022-09-23T11:12:35.000Z,14.85
2022-09-23T11:17:34.000Z,15.01
2022-09-23T11:22:34.000Z,15.26
2022-09-23T11:27:34.000Z,15.29
2022-09-23T11:32:34.000Z,15.09
2022-09-23T11:37:34.000Z,14.84
2022-09-23T11:42:35.000Z,14.69
2022-09-23T11:47:35.000Z,14.94
2022-09-23T11:52:34.000Z,14.98
2022-09-23T11:57:34.000Z,14.91
2022-09-23T12:02:41.000Z,14.48
2022-09-23T12:07:34.000Z,14.13
2022-09-23T12:12:37.000Z,14.05
2022-09-23T12:17:35.000Z,14.05
2022-09-23T12:22:34.000Z,14.16
2022-09-23T12:27:35.000Z,14.33
2022-09-23T12:32:34.000Z,14.27
2022-09-23T12:42:40.000Z,14.33
2022-09-23T12:47:35.000Z,14.33
2022-09-23T12:52:35.000Z,14.33
2022-09-23T12:57:35.000Z,14.43
2022-09-23T13:02:35.000Z,14.54
2022-09-23T13:07:34.000Z,14.38
2022-09-23T13:12:35.000Z,14.17
2022-09-23T13:17:34.000Z,14.1
2022-09-23T13:22:34.000Z,14.15
2022-09-23T13:27:35.000Z,14.07
2022-09-23T13:32:34.000Z,13.8
2022-09-23T13:37:35.000Z,13.57
2022-09-23T13:42:34.000Z,13.58
2022-09-23T13:47:34.000Z,13.61
2022-09-23T13:52:34.000Z,13.74
2022-09-23T13:57:35.000Z,13.77
2022-09-23T14:02:35.000Z,13.76
2022-09-23T14:07:34.000Z,13.76
2022-09-23T14:12:35.000Z,13.7
2022-09-23T14:17:34.000Z,13.76
2022-09-23T14:22:35.000Z,13.65
2022-09-23T14:27:35.000Z,13.5
2022-09-23T14:32:34.000Z,13.38
2022-09-23T14:37:35.000Z,13.23
2022-09-23T14:42:34.000Z,13.13
2022-09-23T14:52:34.000Z,13.07
2022-09-23T14:57:34.000Z,13.03
2022-09-23T15:02:35.000Z,12.88
2022-09-23T15:07:35.000Z,12.96
2022-09-23T15:12:34.000Z,12.78
2022-09-23T15:17:35.000Z,12.88
2022-09-23T15:22:35.000Z,12.94
2022-09-23T15:27:35.000Z,13.01
2022-09-23T15:32:34.000Z,12.87
2022-09-23T15:37:35.000Z,12.78
2022-09-23T15:42:34.000Z,12.78
2022-09-23T15:47:35.000Z,12.53
2022-09-23T15:52:35.000Z,12.47
2022-09-23T15:57:35.000Z,12.57
2022-09-23T16:02:35.000Z,12.56
2022-09-23T16:07:34.000Z,12.66
2022-09-23T16:12:34.000Z,12.67
2022-09-23T16:17:35.000Z,12.53
2022-09-23T16:22:35.000Z,12.42
2022-09-23T16:27:35.000Z,12.53
2022-09-23T16:32:35.000Z,12.73
2022-09-23T16:37:35.000Z,12.81
2022-09-23T16:42:35.000Z,12.44
2022-09-23T16:47:35.000Z,12.16
2022-09-23T16:52:35.000Z,12.08
2022-09-23T16:57:35.000Z,12.08
2022-09-23T17:02:35.000Z,11.99
2022-09-23T17:07:35.000Z,12
2022-09-23T17:12:34.000Z,12.13
2022-09-23T17:17:35.000Z,12.05
2022-09-23T17:27:35.000Z,11.76
2022-09-23T17:32:35.000Z,11.69
2022-09-23T17:37:35.000Z,11.77
2022-09-23T17:42:35.000Z,11.63
2022-09-23T17:47:35.000Z,11.63
2022-09-23T17:52:34.000Z,11.7
2022-09-23T17:57:35.000Z,11.72
2022-09-23T18:02:35.000Z,11.69
2022-09-23T18:07:35.000Z,11.44
2022-09-23T18:12:34.000Z,11.29
2022-09-23T18:22:34.000Z,11.09
2022-09-23T18:27:35.000Z,10.99
2022-09-23T18:32:34.000Z,10.98
2022-09-23T18:37:35.000Z,11.03
2022-09-23T18:42:35.000Z,10.96
2022-09-23T18:47:34.000Z,10.95
2022-09-23T18:52:35.000Z,10.92
2022-09-23T18:57:34.000Z,10.92
2022-09-23T19:02:35.000Z,10.83
2022-09-23T19:07:34.000Z,10.81
2022-09-23T19:17:34.000Z,10.88
2022-09-23T19:22:35.000Z,10.92
2022-09-23T19:27:34.000Z,10.87
2022-09-23T19:32:35.000Z,10.97
2022-09-23T19:37:35.000Z,10.95
2022-09-23T19:42:35.000Z,11.01
2022-09-23T19:47:35.000Z,10.99
2022-09-23T19:52:35.000Z,10.97
2022-09-23T19:57:34.000Z,10.97
2022-09-23T20:02:35.000Z,10.91
2022-09-23T20:07:35.000Z,10.91
2022-09-23T20:12:34.000Z,10.84
2022-09-23T20:17:35.000Z,10.84
2022-09-23T20:22:37.000Z,10.88
2022-09-23T20:27:35.000Z,10.83
2022-09-23T20:32:34.000Z,10.88
2022-09-23T20:37:35.000Z,10.97
2022-09-23T20:42:34.000Z,10.96
2022-09-23T20:47:35.000Z,10.89
2022-09-23T20:52:34.000Z,10.92
2022-09-23T20:57:34.000Z,10.99
2022-09-23T21:02:34.000Z,10.99
2022-09-23T21:07:34.000Z,10.85
2022-09-23T21:12:34.000Z,10.79
2022-09-23T21:17:35.000Z,10.77
2022-09-23T21:22:34.000Z,10.77
2022-09-23T21:27:34.000Z,10.79
2022-09-23T21:32:35.000Z,10.77
2022-09-23T21:37:35.000Z,10.77
2022-09-23T21:42:34.000Z,10.73
2022-09-23T21:47:34.000Z,10.72
2022-09-23T21:52:34.000Z,10.67
2022-09-23T21:57:34.000Z,10.67
2022-09-23T22:02:35.000Z,10.68
2022-09-23T22:07:35.000Z,10.7
2022-09-23T22:12:34.000Z,10.67
2022-09-23T22:17:35.000Z,10.68
2022-09-23T22:22:34.000Z,10.6
2022-09-23T22:27:34.000Z,10.58
2022-09-23T22:32:34.000Z,10.52
2022-09-23T22:37:35.000Z,10.52
2022-09-23T22:42:34.000Z,10.51
2022-09-23T22:47:34.000Z,10.53
2022-09-23T22:52:35.000Z,10.52
2022-09-23T22:57:35.000Z,10.55
2022-09-23T23:02:34.000Z,10.58
2022-09-23T23:07:35.000Z,10.61
2022-09-23T23:12:35.000Z,10.68
2022-09-23T23:17:35.000Z,10.72
2022-09-23T23:22:35.000Z,10.68
2022-09-23T23:27:34.000Z,10.67
2022-09-23T23:32:35.000Z,10.7
2022-09-23T23:37:34.000Z,10.66
2022-09-23T23:42:34.000Z,10.65
2022-09-23T23:47:35.000Z,10.64
2022-09-23T23:52:35.000Z,10.64
2022-09-23T23:57:35.000Z,10.77
